EDT,Max TemperatureF,Mean TemperatureF,Min TemperatureF,Max Dew PointF,MeanDew PointF,Min DewpointF,Max Humidity, Mean Humidity, Min Humidity, Max Sea Level PressureIn, Mean Sea Level PressureIn, Min Sea Level PressureIn, Max VisibilityMiles, Mean VisibilityMiles, Min VisibilityMiles, Max Wind SpeedMPH, Mean Wind SpeedMPH, Max Gust SpeedMPH,PrecipitationIn, CloudCover, Events, WindDirDegrees
2013-5-1,84,70,55,57,54,50,83,60,37,30.15,30.12,30.03,10,10,10,14,5,17,0.00,0,,133
2013-5-2,77,70,62,54,52,51,72,59,46,30.18,30.13,30.07,10,10,10,16,8,22,0.00,0,,144
2013-5-3,77,70,62,57,52,37,72,53,34,30.06,29.99,29.92,10,10,10,21,10,28,0.00,1,,147
2013-5-4,73,66,58,51,43,37,69,49,29,29.99,29.97,29.93,10,10,10,18,10,24,0.00,1,,129
2013-5-5,65,60,54,53,49,43,93,71,48,29.99,29.96,29.93,10,10,6,22,7,25,0.04,4,Rain,106
2013-5-6,70,63,55,55,52,47,83,69,55,29.97,29.94,29.91,10,10,9,33,9,51,0.01,5,Rain,95
2013-5-7,75,65,54,56,53,51,93,70,46,29.99,29.96,29.93,10,10,5,18,6,23,T,5,,70
2013-5-8,80,67,53,56,53,48,93,64,35,30.01,29.98,29.94,10,6,0,25,4,29,0.09,2,Fog-Rain,351
2013-5-9,81,69,57,58,55,47,86,58,30,29.99,29.96,29.90,10,9,2,25,7,36,0.44,3,Rain-Thunderstorm,234
2013-5-10,69,60,50,61,57,45,90,79,68,29.90,29.84,29.78,10,8,4,18,9,24,T,6,Rain,250
2013-5-11,62,53,43,50,44,37,93,80,66,30.01,29.91,29.84,10,7,2,31,11,37,0.01,7,Rain,299
2013-5-12,55,47,39,35,31,25,79,56,32,30.12,30.06,30.01,10,10,10,24,10,31,0.00,3,,289
2013-5-13,63,52,40,39,29,22,71,46,20,30.18,30.13,30.10,10,10,7,20,6,25,0.00,2,,296
2013-5-14,86,69,52,58,45,32,54,44,34,30.10,29.91,29.76,10,10,10,23,11,33,0.00,3,,211
2013-5-15,89,81,72,63,56,52,61,47,32,29.84,29.79,29.76,10,10,2,25,13,33,0.12,2,Rain,255
2013-5-16,83,75,67,65,60,54,84,62,39,29.96,29.90,29.81,10,8,3,16,3,31,0.04,3,Rain,183
2013-5-17,84,72,60,64,60,55,90,71,51,30.06,30.01,29.96,10,5,0,20,5,28,0.20,4,Fog-Rain-Thunderstorm,151
2013-5-18,80,72,64,63,62,60,87,71,54,30.10,30.03,29.97,10,6,2,12,5,15,0.00,6,,104
2013-5-19,86,74,62,65,62,59,93,69,45,30.00,29.94,29.86,10,8,2,12,5,16,0.00,2,,166
2013-5-20,90,82,74,68,66,63,84,64,43,29.96,29.90,29.82,10,8,4,18,10,26,0.00,4,,201
2013-5-21,87,77,66,65,61,58,81,61,40,29.88,29.80,29.75,10,10,4,32,11,41,0.02,1,Rain,209
2013-5-22,78,72,66,64,62,59,81,67,52,29.80,29.75,29.69,10,8,2,26,9,38,0.24,6,Rain,207
2013-5-23,64,58,51,58,53,47,89,83,77,30.14,29.93,29.77,10,8,1,22,12,28,0.07,7,Rain,292
2013-5-24,65,55,44,47,41,34,93,62,31,30.35,30.27,30.14,10,10,7,16,8,24,T,3,,349
2013-5-25,64,54,43,43,39,37,89,64,39,30.38,30.31,30.24,10,10,10,9,3,14,T,4,,249
2013-5-26,69,58,46,47,41,36,77,56,35,30.29,30.25,30.18,10,10,10,12,5,14,T,4,Rain,145
2013-5-27,76,65,53,65,57,46,93,77,60,30.18,30.03,29.89,10,6,0,35,8,45,1.59,7,Fog-Rain-Thunderstorm,155
2013-5-28,81,73,65,66,63,60,93,76,58,29.95,29.91,29.87,10,10,7,23,11,32,0.00,2,,211
2013-5-29,85,78,70,63,59,57,64,52,40,30.00,29.98,29.93,10,10,10,21,10,28,0.00,2,,214
2013-5-30,88,80,71,66,63,60,73,59,45,30.06,30.01,29.94,10,10,8,23,11,31,T,1,Rain-Thunderstorm,194
2013-5-31,77,73,68,68,65,63,90,77,64,30.01,29.95,29.87,10,9,2,18,11,29,0.27,5,Rain,199